createdAt,value
2019-05-02T00:02:23.993Z,9.63
2019-05-02T00:04:55.999Z,9.60
2019-05-02T00:07:26.125Z,10.03
2019-05-02T00:09:55.556Z,9.37
2019-05-02T00:12:25.420Z,9.33
2019-05-02T00:14:56.492Z,9.23
2019-05-02T00:17:27.558Z,9.57
2019-05-02T00:19:59.223Z,9.23
2019-05-02T00:22:28.489Z,8.93
2019-05-02T00:25:11.018Z,8.67
2019-05-02T00:27:39.261Z,8.60
2019-05-02T00:30:08.703Z,9.37
2019-05-02T00:32:37.903Z,9.33
2019-05-02T00:35:07.403Z,9.00
2019-05-02T00:37:36.600Z,8.77
2019-05-02T00:40:06.766Z,9.40
2019-05-02T00:42:36.006Z,8.70
2019-05-02T00:45:05.924Z,8.73
2019-05-02T00:47:47.854Z,8.03
2019-05-02T00:50:14.922Z,7.90
2019-05-02T00:52:44.082Z,7.97
2019-05-02T00:55:13.319Z,8.53
2019-05-02T00:57:42.558Z,8.53
2019-05-02T01:00:13.369Z,8.67
2019-05-02T01:02:48.450Z,8.47
2019-05-02T01:05:18.831Z,8.50
2019-05-02T01:07:48.037Z,7.87
2019-05-02T01:10:21.222Z,7.70
2019-05-02T01:12:48.552Z,8.37
2019-05-02T01:15:17.793Z,7.47
2019-05-02T01:17:46.973Z,8.03
2019-05-02T01:20:16.295Z,7.57
2019-05-02T01:22:47.255Z,7.80
2019-05-02T01:25:17.287Z,7.87
2019-05-02T01:28:12.759Z,8.07
2019-05-02T01:31:01.550Z,7.30
2019-05-02T01:33:41.625Z,7.17
2019-05-02T01:36:16.899Z,7.60
2019-05-02T01:38:50.265Z,7.20
2019-05-02T01:41:19.513Z,7.40
2019-05-02T01:43:48.694Z,7.47
2019-05-02T01:46:22.399Z,7.90
2019-05-02T01:48:48.870Z,7.80
2019-05-02T01:51:18.085Z,7.13
2019-05-02T01:53:47.331Z,7.27
2019-05-02T01:56:16.539Z,7.57
2019-05-02T01:58:45.738Z,7.60
2019-05-02T02:01:16.350Z,7.80
2019-05-02T02:03:46.965Z,7.53
2019-05-02T02:06:16.428Z,8.10
2019-05-02T02:08:45.625Z,7.70
2019-05-02T02:11:14.905Z,7.53
2019-05-02T02:13:44.127Z,7.53
2019-05-02T02:16:13.477Z,7.70
2019-05-02T02:18:53.070Z,8.53
2019-05-02T02:21:34.919Z,7.73
2019-05-02T02:24:29.735Z,7.67
2019-05-02T02:26:58.943Z,7.70
2019-05-02T02:29:28.287Z,7.60
2019-05-02T02:31:57.632Z,7.10
2019-05-02T02:34:32.325Z,7.67
2019-05-02T02:36:57.737Z,7.60
2019-05-02T02:39:26.967Z,8.10
2019-05-02T02:41:56.167Z,7.27
2019-05-02T02:44:47.716Z,7.97
2019-05-02T02:47:18.759Z,8.50
2019-05-02T02:49:47.886Z,8.57
2019-05-02T02:52:17.117Z,7.07
2019-05-02T02:54:46.378Z,7.60
2019-05-02T02:57:26.013Z,7.40
2019-05-02T02:59:46.460Z,7.60
2019-05-02T03:02:15.792Z,7.60
2019-05-02T03:04:46.419Z,6.43
2019-05-02T03:07:24.509Z,7.03
2019-05-02T03:09:46.838Z,7.30
2019-05-02T03:12:36.257Z,9.30
2019-05-02T03:15:07.346Z,7.23
2019-05-02T03:17:36.664Z,7.20
2019-05-02T03:20:05.987Z,6.50
2019-05-02T03:22:41.979Z,6.83
2019-05-02T03:25:06.471Z,7.07
2019-05-02T03:27:37.120Z,6.70
2019-05-02T03:30:06.768Z,6.80
2019-05-02T03:32:37.060Z,7.10
2019-05-02T03:35:06.313Z,6.53
2019-05-02T03:37:35.514Z,7.33
2019-05-02T03:40:04.871Z,6.90
2019-05-02T03:42:44.025Z,6.80
2019-05-02T03:45:05.474Z,6.97
2019-05-02T03:47:37.122Z,6.47
2019-05-02T03:50:08.990Z,6.97
2019-05-02T03:52:43.257Z,6.90
2019-05-02T03:55:07.967Z,7.17
2019-05-02T03:57:41.652Z,6.87
2019-05-02T04:00:13.606Z,7.30
2019-05-02T04:02:39.779Z,7.30
2019-05-02T04:05:09.217Z,7.30
2019-05-02T04:07:40.451Z,7.17
2019-05-02T04:10:13.505Z,7.13
2019-05-02T04:12:41.144Z,7.30
2019-05-02T04:15:10.612Z,7.30
2019-05-02T04:17:40.022Z,7.70
2019-05-02T04:20:12.453Z,7.40
2019-05-02T04:22:42.789Z,7.73
2019-05-02T04:25:11.810Z,7.47
2019-05-02T04:27:41.473Z,7.83
2019-05-02T04:30:14.030Z,8.10
2019-05-02T04:32:49.530Z,8.30
2019-05-02T04:35:22.163Z,7.70
2019-05-02T04:37:59.271Z,7.30
2019-05-02T04:40:34.927Z,7.93
2019-05-02T04:43:10.483Z,8.00
2019-05-02T04:46:09.336Z,8.57
2019-05-02T04:48:48.653Z,7.77
2019-05-02T04:51:20.821Z,7.83
2019-05-02T04:56:49.745Z,8.17
2019-05-02T04:59:22.575Z,8.20
2019-05-02T05:01:57.164Z,8.07
2019-05-02T05:04:21.945Z,8.63
2019-05-02T05:07:00.939Z,8.10
2019-05-02T05:09:29.127Z,8.53
2019-05-02T05:12:03.239Z,8.23
2019-05-02T05:14:43.019Z,8.53
2019-05-02T05:17:13.767Z,8.03
2019-05-02T05:19:48.701Z,8.40
2019-05-02T05:22:20.297Z,9.27
2019-05-02T05:25:04.879Z,8.23
2019-05-02T05:27:34.431Z,8.20
2019-05-02T05:30:15.906Z,7.97
2019-05-02T05:32:58.349Z,8.00
2019-05-02T05:35:32.915Z,8.57
2019-05-02T05:38:02.969Z,9.00
2019-05-02T05:40:53.567Z,8.73
2019-05-02T05:43:30.391Z,9.27
2019-05-02T05:46:24.322Z,9.53
2019-05-02T05:52:18.232Z,9.30
2019-05-02T05:54:50.350Z,9.37
2019-05-02T05:57:21.197Z,9.87
2019-05-02T05:59:50.652Z,9.73
2019-05-02T06:02:19.799Z,9.47
2019-05-02T06:04:50.256Z,10.10
2019-05-02T06:07:20.284Z,8.73
2019-05-02T06:09:50.618Z,9.27
2019-05-02T06:12:19.818Z,8.80
2019-05-02T06:14:48.960Z,8.73
2019-05-02T06:17:18.494Z,8.03
2019-05-02T06:19:48.349Z,7.43
2019-05-02T06:22:24.300Z,7.30
2019-05-02T06:24:50.910Z,7.27
2019-05-02T06:27:20.886Z,7.53
2019-05-02T06:29:55.830Z,7.27
2019-05-02T06:32:22.233Z,7.33
2019-05-02T06:34:51.576Z,7.60
2019-05-02T06:37:21.085Z,8.43
2019-05-02T06:39:50.264Z,7.87
2019-05-02T06:42:19.431Z,7.87
2019-05-02T06:44:48.569Z,7.80
2019-05-02T06:47:17.771Z,7.80
2019-05-02T06:49:46.906Z,8.50
2019-05-02T06:52:16.195Z,7.20
2019-05-02T06:54:46.334Z,6.20
2019-05-02T06:57:19.106Z,6.00
2019-05-02T06:59:49.900Z,5.73
2019-05-02T07:02:17.139Z,5.20
2019-05-02T07:04:46.343Z,5.07
2019-05-02T07:07:15.501Z,5.17
2019-05-02T07:09:44.735Z,4.97
2019-05-02T07:12:14.806Z,4.50
2019-05-02T07:14:45.891Z,4.47
2019-05-02T07:17:31.485Z,4.33
2019-05-02T07:20:04.025Z,4.57
2019-05-02T07:22:33.045Z,4.47
2019-05-02T07:25:06.345Z,4.40
2019-05-02T07:27:33.688Z,4.30
2019-05-02T07:30:04.858Z,4.20
2019-05-02T07:32:34.158Z,4.37
2019-05-02T07:35:03.538Z,4.50
2019-05-02T07:37:32.783Z,4.77
2019-05-02T07:40:02.049Z,4.17
2019-05-02T07:42:31.248Z,3.80
2019-05-02T07:45:04.292Z,3.40
2019-05-02T07:47:34.568Z,3.37
2019-05-02T07:50:05.373Z,3.70
2019-05-02T07:52:33.767Z,3.73
2019-05-02T07:55:06.657Z,3.83
2019-05-02T07:57:35.410Z,3.97
2019-05-02T08:00:05.765Z,3.80
2019-05-02T08:02:35.583Z,3.87
2019-05-02T08:05:08.519Z,4.30
2019-05-02T08:07:36.302Z,4.10
2019-05-02T08:10:06.018Z,5.93
2019-05-02T08:12:35.336Z,4.80
2019-05-02T08:15:13.308Z,4.47
2019-05-02T08:17:40.578Z,4.93
2019-05-02T08:20:13.546Z,5.40
2019-05-02T08:22:44.036Z,6.03
2019-05-02T08:25:12.695Z,6.00
2019-05-02T08:27:56.628Z,6.70
2019-05-02T08:30:35.336Z,6.87
2019-05-02T08:33:03.010Z,6.10
2019-05-02T08:35:32.242Z,6.50
2019-05-02T08:38:01.465Z,6.27
2019-05-02T08:40:30.661Z,6.63
2019-05-02T08:43:03.670Z,6.83
2019-05-02T08:45:32.932Z,6.53
2019-05-02T08:48:05.259Z,6.80
2019-05-02T08:50:33.486Z,5.70
2019-05-02T08:53:03.045Z,5.57
2019-05-02T08:55:32.408Z,5.00
2019-05-02T08:58:06.038Z,5.27
2019-05-02T09:00:37.548Z,5.23
2019-05-02T09:03:04.759Z,5.23
2019-05-02T09:05:36.373Z,4.90
2019-05-02T09:08:09.290Z,5.00
2019-05-02T09:10:41.607Z,4.60
2019-05-02T09:13:09.081Z,4.87
2019-05-02T09:15:40.359Z,5.30
2019-05-02T09:18:09.228Z,4.50
2019-05-02T09:20:38.468Z,5.27
2019-05-02T09:23:07.641Z,4.90
2019-05-02T09:25:36.897Z,5.57
2019-05-02T09:28:06.811Z,5.27
2019-05-02T09:30:36.032Z,5.90
2019-05-02T09:33:06.735Z,6.20
2019-05-02T09:35:36.261Z,6.63
2019-05-02T09:38:07.087Z,6.37
2019-05-02T09:40:36.312Z,6.00
2019-05-02T09:43:05.593Z,6.13
2019-05-02T09:45:37.453Z,6.00
2019-05-02T09:48:08.170Z,5.83
2019-05-02T09:50:38.478Z,5.70
2019-05-02T09:53:13.161Z,6.00
2019-05-02T09:55:43.774Z,5.43
2019-05-02T09:58:14.761Z,4.87
2019-05-02T10:00:57.266Z,4.63
2019-05-02T10:03:26.522Z,5.10
2019-05-02T10:05:55.868Z,4.47
2019-05-02T10:08:25.127Z,4.47
2019-05-02T10:10:54.670Z,4.20
2019-05-02T10:13:23.884Z,3.90
2019-05-02T10:15:53.089Z,4.03
2019-05-02T10:18:25.516Z,4.27
2019-05-02T10:20:54.992Z,4.40
2019-05-02T10:23:24.245Z,4.60
2019-05-02T10:25:53.503Z,4.57
2019-05-02T10:28:23.766Z,4.03
2019-05-02T10:30:56.687Z,4.10
2019-05-02T10:33:28.082Z,4.10
2019-05-02T10:35:54.731Z,3.97
2019-05-02T10:38:23.954Z,4.20
2019-05-02T10:40:54.589Z,4.50
2019-05-02T10:43:23.862Z,4.10
2019-05-02T10:45:58.467Z,4.60
2019-05-02T10:48:28.609Z,4.07
2019-05-02T10:51:18.432Z,4.77
2019-05-02T10:53:54.772Z,4.40
2019-05-02T10:56:18.361Z,4.20
2019-05-02T10:58:47.527Z,3.73
2019-05-02T11:01:17.658Z,3.97
2019-05-02T11:03:47.614Z,3.80
2019-05-02T11:06:16.974Z,3.60
2019-05-02T11:08:46.252Z,4.17
2019-05-02T11:11:16.691Z,4.03
2019-05-02T11:14:14.348Z,4.50
2019-05-02T11:16:52.481Z,4.00
2019-05-02T11:19:31.812Z,4.10
2019-05-02T11:22:02.904Z,4.60
2019-05-02T11:24:32.292Z,4.20
2019-05-02T11:27:02.174Z,4.40
2019-05-02T11:29:32.200Z,4.10
2019-05-02T11:32:02.762Z,3.87
2019-05-02T11:34:33.087Z,3.97
2019-05-02T11:37:02.419Z,4.00
2019-05-02T11:39:42.983Z,4.30
2019-05-02T11:42:02.658Z,3.80
2019-05-02T11:44:32.610Z,4.37
2019-05-02T11:47:02.165Z,5.03
2019-05-02T11:49:32.091Z,4.87
2019-05-02T11:52:04.545Z,4.60
2019-05-02T11:54:32.459Z,4.50
2019-05-02T11:57:02.233Z,4.27
2019-05-02T11:59:32.067Z,4.70
2019-05-02T12:02:19.368Z,4.30
2019-05-02T12:04:53.949Z,4.47
2019-05-02T12:07:20.461Z,4.20
2019-05-02T12:09:54.038Z,4.00
2019-05-02T12:12:22.648Z,4.30
2019-05-02T12:14:52.823Z,3.70
2019-05-02T12:17:23.339Z,3.40
2019-05-02T12:19:52.559Z,3.43
2019-05-02T12:22:22.584Z,3.33
2019-05-02T12:24:52.044Z,3.63
2019-05-02T12:27:22.075Z,3.67
2019-05-02T12:29:57.815Z,3.67
2019-05-02T12:32:24.128Z,4.10
2019-05-02T12:34:55.777Z,4.23
2019-05-02T12:37:25.023Z,4.47
2019-05-02T12:39:54.711Z,4.20
2019-05-02T12:42:24.518Z,4.10
2019-05-02T12:44:54.345Z,4.10
2019-05-02T12:47:23.664Z,3.93
2019-05-02T12:50:04.591Z,3.50
2019-05-02T12:52:35.439Z,3.80
2019-05-02T12:55:05.077Z,3.47
2019-05-02T12:57:38.609Z,4.20
2019-05-02T13:00:08.334Z,3.47
2019-05-02T13:03:03.514Z,3.23
2019-05-02T13:05:32.711Z,3.80
2019-05-02T13:08:02.552Z,4.33
2019-05-02T13:10:44.358Z,3.73
2019-05-02T13:13:16.185Z,4.40
2019-05-02T13:15:44.565Z,3.87
2019-05-02T13:18:18.665Z,4.00
2019-05-02T13:20:44.919Z,4.27
2019-05-02T13:23:27.360Z,4.00
2019-05-02T13:25:57.661Z,3.70
2019-05-02T13:28:26.989Z,3.80
2019-05-02T13:31:05.101Z,3.70
2019-05-02T13:33:44.265Z,3.53
2019-05-02T13:36:32.576Z,3.47
2019-05-02T13:39:01.904Z,4.00
2019-05-02T13:41:32.849Z,3.80
2019-05-02T13:44:02.262Z,4.00
2019-05-02T13:46:32.699Z,4.60
2019-05-02T13:49:02.251Z,4.23
2019-05-02T13:51:32.076Z,4.37
2019-05-02T13:54:02.639Z,4.73
2019-05-02T13:56:52.373Z,4.37
2019-05-02T13:59:22.454Z,4.30
2019-05-02T14:01:52.934Z,4.00
2019-05-02T14:04:23.178Z,4.80
2019-05-02T14:06:53.110Z,4.47
2019-05-02T14:09:28.169Z,4.97
2019-05-02T14:12:02.702Z,5.00
2019-05-02T14:14:32.895Z,5.60
2019-05-02T14:17:03.043Z,5.40
2019-05-02T14:19:32.413Z,5.43
2019-05-02T14:22:02.975Z,5.77
2019-05-02T14:24:32.474Z,5.07
2019-05-02T14:27:02.608Z,5.30
2019-05-02T14:29:34.632Z,5.53
2019-05-02T14:32:05.659Z,5.60
2019-05-02T14:34:42.625Z,5.87
2019-05-02T14:37:12.059Z,5.53
2019-05-02T14:39:49.002Z,6.43
2019-05-02T14:42:25.999Z,5.97
2019-05-02T14:45:10.760Z,5.20
2019-05-02T14:47:32.945Z,5.40
2019-05-02T14:50:05.261Z,5.93
2019-05-02T14:52:37.166Z,5.83
2019-05-02T14:55:06.421Z,4.77
2019-05-02T14:57:36.957Z,4.87
2019-05-02T15:00:08.287Z,4.37
2019-05-02T15:02:49.047Z,4.50
2019-05-02T15:05:19.408Z,4.30
2019-05-02T15:07:46.437Z,5.27
2019-05-02T15:10:15.749Z,4.40
2019-05-02T15:12:44.888Z,4.13
2019-05-02T15:15:17.241Z,4.43
2019-05-02T15:17:46.563Z,4.30
2019-05-02T15:20:16.063Z,4.40
2019-05-02T15:22:47.376Z,3.97
2019-05-02T15:25:19.421Z,4.50
2019-05-02T15:27:49.898Z,3.70
2019-05-02T15:30:21.375Z,3.70
2019-05-02T15:32:59.133Z,3.43
2019-05-02T15:35:43.243Z,3.37
2019-05-02T15:38:20.894Z,3.60
2019-05-02T15:40:50.015Z,3.40
2019-05-02T15:43:14.684Z,4.13
2019-05-02T15:45:45.381Z,3.50
2019-05-02T15:48:22.779Z,3.47
2019-05-02T15:50:52.034Z,3.00
2019-05-02T15:53:25.798Z,2.97
2019-05-02T15:55:56.011Z,3.30
2019-05-02T15:58:27.873Z,4.20
2019-05-02T16:01:22.450Z,4.07
2019-05-02T16:03:52.157Z,3.93
2019-05-02T16:06:24.341Z,4.40
2019-05-02T16:08:57.451Z,4.07
2019-05-02T16:11:29.495Z,4.23
2019-05-02T16:14:02.020Z,4.30
2019-05-02T16:16:32.061Z,5.10
2019-05-02T16:19:15.009Z,4.37
2019-05-02T16:21:54.481Z,4.80
2019-05-02T16:24:26.169Z,6.30
2019-05-02T16:27:05.036Z,6.93
2019-05-02T16:29:34.305Z,8.30
2019-05-02T16:32:16.355Z,8.13
2019-05-02T16:34:54.573Z,2.30
2019-05-02T16:37:22.999Z,2.10
2019-05-02T16:39:54.673Z,2.17
2019-05-02T16:42:32.960Z,2.30
2019-05-02T16:45:02.524Z,2.50
2019-05-02T16:47:32.941Z,2.50
2019-05-02T16:50:03.801Z,2.13
2019-05-02T16:52:38.268Z,2.57
2019-05-02T16:55:22.184Z,2.20
2019-05-02T16:57:51.774Z,2.50
2019-05-02T17:00:23.304Z,2.57
2019-05-02T17:02:58.515Z,2.23
2019-05-02T17:05:44.156Z,3.00
2019-05-02T17:08:20.012Z,2.50
2019-05-02T17:11:15.626Z,2.30
2019-05-02T17:13:44.119Z,2.50
2019-05-02T17:16:17.262Z,2.70
2019-05-02T17:18:48.306Z,2.57
2019-05-02T17:21:17.773Z,3.00
2019-05-02T17:23:49.714Z,2.50
2019-05-02T17:26:18.029Z,3.63
2019-05-02T17:28:47.366Z,2.73
2019-05-02T17:31:20.467Z,2.90
2019-05-02T17:33:51.074Z,2.43
2019-05-02T17:36:23.664Z,3.17
2019-05-02T17:38:51.999Z,3.00
2019-05-02T17:41:22.330Z,3.50
2019-05-02T17:43:51.358Z,5.37
2019-05-02T17:46:25.729Z,4.27
2019-05-02T17:48:53.785Z,4.97
2019-05-02T17:52:04.976Z,4.00
2019-05-02T17:54:26.344Z,3.37
2019-05-02T17:56:57.549Z,2.80
2019-05-02T17:59:28.163Z,2.97
2019-05-02T18:01:57.679Z,3.57
2019-05-02T18:04:26.865Z,3.27
2019-05-02T18:06:56.113Z,2.50
2019-05-02T18:09:26.362Z,2.37
2019-05-02T18:11:56.256Z,2.70
2019-05-02T18:14:25.402Z,3.10
2019-05-02T18:16:55.726Z,2.87
2019-05-02T18:19:24.944Z,3.17
2019-05-02T18:21:58.307Z,2.57
2019-05-02T18:24:26.138Z,2.90
2019-05-02T18:26:55.327Z,2.90
2019-05-02T18:29:24.603Z,2.70
2019-05-02T18:31:55.991Z,3.10
2019-05-02T18:34:25.511Z,3.37
2019-05-02T18:36:57.330Z,3.30
2019-05-02T18:39:25.710Z,3.07
2019-05-02T18:41:55.233Z,3.03
2019-05-02T18:44:24.509Z,3.67
2019-05-02T18:46:53.826Z,3.70
2019-05-02T18:49:23.499Z,5.47
2019-05-02T18:51:57.156Z,6.20
2019-05-02T18:54:24.405Z,5.20
2019-05-02T18:56:55.347Z,4.00
2019-05-02T18:59:27.252Z,4.13
2019-05-02T19:01:59.536Z,5.23
2019-05-02T19:04:34.978Z,4.50
2019-05-02T19:06:58.612Z,5.30
2019-05-02T19:09:30.475Z,4.67
2019-05-02T19:12:05.394Z,4.07
2019-05-02T19:14:29.629Z,3.80
2019-05-02T19:17:03.560Z,4.10
2019-05-02T19:19:35.187Z,5.40
2019-05-02T19:22:02.457Z,4.20
2019-05-02T19:24:32.891Z,4.20
2019-05-02T19:27:03.591Z,4.00
2019-05-02T19:29:32.953Z,4.50
2019-05-02T19:32:02.393Z,3.83
2019-05-02T19:34:32.395Z,3.90
2019-05-02T19:37:04.474Z,3.93
2019-05-02T19:39:39.018Z,3.63
2019-05-02T19:42:05.867Z,3.93
2019-05-02T19:44:35.178Z,9.33
2019-05-02T19:47:08.413Z,4.13
2019-05-02T19:49:35.451Z,3.63
2019-05-02T19:52:04.682Z,4.07
2019-05-02T19:54:39.593Z,4.27
2019-05-02T19:57:04.938Z,4.00
2019-05-02T19:59:34.207Z,3.70
2019-05-02T20:02:06.146Z,4.33
2019-05-02T20:04:37.656Z,8.73
2019-05-02T20:07:06.619Z,6.90
2019-05-02T20:09:38.247Z,5.40
2019-05-02T20:12:10.529Z,4.37
2019-05-02T20:14:38.139Z,4.10
2019-05-02T20:17:10.395Z,4.13
2019-05-02T20:19:42.277Z,3.63
2019-05-02T20:22:17.146Z,3.43
2019-05-02T20:24:59.968Z,3.50
2019-05-02T20:27:28.498Z,3.90
2019-05-02T20:29:57.654Z,3.40
2019-05-02T20:32:26.945Z,3.00
2019-05-02T20:34:56.071Z,2.77
2019-05-02T20:37:25.323Z,2.87
2019-05-02T20:39:54.772Z,3.30
2019-05-02T20:42:23.938Z,2.53
2019-05-02T20:44:53.133Z,3.30
2019-05-02T20:47:24.041Z,3.10
2019-05-02T20:49:53.369Z,2.73
2019-05-02T20:52:22.782Z,3.00
2019-05-02T20:54:52.514Z,2.20
2019-05-02T20:57:21.934Z,2.30
2019-05-02T20:59:52.592Z,2.80
2019-05-02T21:02:22.020Z,2.50
2019-05-02T21:04:52.070Z,2.90
2019-05-02T21:07:33.052Z,2.50
2019-05-02T21:10:21.774Z,2.70
2019-05-02T21:12:52.627Z,2.30
2019-05-02T21:15:23.206Z,2.50
2019-05-02T21:17:52.492Z,2.10
2019-05-02T21:20:21.974Z,2.20
2019-05-02T21:22:52.984Z,2.43
2019-05-02T21:25:23.152Z,2.33
2019-05-02T21:27:53.736Z,2.10
2019-05-02T21:30:26.622Z,2.60
2019-05-02T21:32:56.991Z,2.27
2019-05-02T21:35:26.275Z,2.23
2019-05-02T21:37:55.597Z,2.07
2019-05-02T21:40:25.902Z,2.00
2019-05-02T21:42:55.194Z,2.00
2019-05-02T21:45:24.368Z,2.10
2019-05-02T21:47:53.704Z,2.20
2019-05-02T21:50:30.006Z,2.00
2019-05-02T21:53:18.401Z,1.83
2019-05-02T21:56:09.292Z,1.83
2019-05-02T21:58:38.591Z,2.10
2019-05-02T22:01:12.905Z,2.10
2019-05-02T22:03:42.490Z,1.77
2019-05-02T22:06:12.196Z,1.63
2019-05-02T22:08:41.835Z,1.90
2019-05-02T22:11:12.268Z,1.60
2019-05-02T22:13:42.313Z,2.07
2019-05-02T22:16:12.963Z,1.67
2019-05-02T22:18:42.738Z,2.03
2019-05-02T22:21:12.350Z,1.60
2019-05-02T22:23:42.742Z,1.73
2019-05-02T22:26:12.763Z,2.00
2019-05-02T22:28:43.312Z,1.43
2019-05-02T22:31:12.545Z,1.60
2019-05-02T22:33:44.667Z,1.70
2019-05-02T22:36:16.247Z,2.00
2019-05-02T22:38:54.153Z,1.53
2019-05-02T22:41:23.349Z,2.17
2019-05-02T22:43:52.515Z,2.00
2019-05-02T22:46:39.829Z,1.80
2019-05-02T22:49:11.496Z,1.83
2019-05-02T22:51:42.661Z,1.80
2019-05-02T22:54:24.135Z,1.80
2019-05-02T22:56:42.951Z,1.70
2019-05-02T22:59:12.110Z,1.83
2019-05-02T23:01:42.175Z,1.80
2019-05-02T23:04:12.758Z,1.90
2019-05-02T23:06:44.230Z,1.70
2019-05-02T23:09:13.403Z,2.13
2019-05-02T23:11:42.812Z,2.17
2019-05-02T23:14:12.252Z,2.07
2019-05-02T23:16:42.724Z,2.00
2019-05-02T23:19:12.543Z,2.00
2019-05-02T23:21:42.367Z,2.00
2019-05-02T23:24:23.737Z,1.57
2019-05-02T23:27:11.717Z,1.97
2019-05-02T23:29:42.451Z,2.23
2019-05-02T23:32:11.796Z,2.00
2019-05-02T23:34:41.828Z,2.00
2019-05-02T23:37:12.225Z,1.70
2019-05-02T23:39:42.571Z,1.80
2019-05-02T23:42:13.418Z,1.90
2019-05-02T23:44:42.810Z,1.70
2019-05-02T23:47:14.553Z,2.40
2019-05-02T23:49:43.735Z,1.70
2019-05-02T23:52:12.939Z,1.50
2019-05-02T23:54:49.909Z,1.70
2019-05-02T23:57:13.804Z,1.80
2019-05-02T23:59:42.986Z,1.63
